Time;durP1;ratioP1;P1;durP2;ratioP2;P2;SDS_P1;SDS_P2;PMS_P1;PMS_P2;Temp;Humidity;BMP_temperature;BMP_pressure;BME280_temperature;BME280_humidity;BME280_pressure;Samples;Min_cycle;Max_cycle;Signal;HPM_P1;HPM_P2
2022/10/03 00:02:23;;;;;;;8.70;3.40;;;14.00;99.90;;;;;;5032702;28;20048;-80
2022/10/03 00:04:59;;;;;;;7.53;2.97;;;14.10;99.90;;;;;;5033733;28;20036;-83
2022/10/03 00:07:45;;;;;;;7.47;3.58;;;14.10;99.90;;;;;;5031053;28;20037;-82
2022/10/03 00:10:49;;;;;;;7.25;3.00;;;14.00;99.90;;;;;;5045648;28;20042;-81
2022/10/03 00:13:25;;;;;;;8.13;2.95;;;13.90;99.90;;;;;;5062331;28;20037;-83
2022/10/03 00:16:04;;;;;;;6.80;3.08;;;13.60;99.90;;;;;;5033581;28;20026;-80
2022/10/03 00:18:33;;;;;;;7.80;3.03;;;13.60;99.90;;;;;;5038138;28;20030;-84
2022/10/03 00:21:22;;;;;;;6.00;3.35;;;13.70;99.90;;;;;;5033541;28;20030;-80
2022/10/03 00:23:59;;;;;;;6.35;2.95;;;13.70;99.90;;;;;;5039343;28;20093;-82
2022/10/03 00:26:36;;;;;;;6.18;3.08;;;13.70;99.90;;;;;;5035489;28;20023;-83
2022/10/03 00:29:08;;;;;;;7.72;2.80;;;13.60;99.90;;;;;;5032487;28;20487;-83
2022/10/03 00:31:36;;;;;;;7.03;2.88;;;13.70;99.90;;;;;;5031452;28;20034;-80
2022/10/03 00:34:11;;;;;;;9.55;3.05;;;13.80;99.90;;;;;;5032242;28;20041;-80
2022/10/03 00:37:04;;;;;;;6.82;3.03;;;13.80;99.90;;;;;;5040852;28;20028;-80
2022/10/03 00:39:46;;;;;;;6.28;3.17;;;13.50;99.90;;;;;;5029650;28;20396;-80
2022/10/03 00:42:48;;;;;;;7.53;3.40;;;13.50;99.90;;;;;;5031961;28;20025;-80
2022/10/03 00:45:35;;;;;;;9.35;3.17;;;13.60;99.90;;;;;;5033468;28;20029;-80
2022/10/03 00:48:19;;;;;;;7.45;3.67;;;13.70;99.90;;;;;;5032342;28;20076;-80
2022/10/03 00:50:45;;;;;;;9.40;3.20;;;13.80;99.90;;;;;;5038344;28;20092;-80
2022/10/03 00:53:25;;;;;;;6.05;3.33;;;13.90;99.90;;;;;;5031544;28;20464;-83
2022/10/03 00:56:16;;;;;;;7.93;3.50;;;13.90;99.90;;;;;;5030890;28;20357;-79
2022/10/03 00:59:12;;;;;;;10.55;4.22;;;13.80;99.90;;;;;;5044411;28;20029;-83
2022/10/03 01:01:49;;;;;;;8.13;3.53;;;13.80;99.90;;;;;;5036783;28;20553;-81
2022/10/03 01:04:40;;;;;;;7.10;3.63;;;13.70;99.90;;;;;;5031039;28;20061;-83
2022/10/03 01:07:21;;;;;;;5.55;2.75;;;13.70;99.90;;;;;;5031262;28;20029;-80
2022/10/03 01:10:03;;;;;;;5.68;3.33;;;13.60;99.90;;;;;;5033838;28;20147;-80
2022/10/03 01:12:44;;;;;;;5.30;3.30;;;13.50;99.90;;;;;;5030983;28;20507;-83
2022/10/03 01:15:27;;;;;;;8.23;3.80;;;13.60;99.90;;;;;;5030206;28;20080;-83
2022/10/03 01:18:33;;;;;;;8.60;4.38;;;13.60;99.90;;;;;;5043104;28;20057;-80
2022/10/03 01:21:11;;;;;;;8.98;3.50;;;13.70;99.90;;;;;;5030493;28;20042;-80
2022/10/03 01:24:11;;;;;;;10.23;3.92;;;13.70;99.90;;;;;;5045560;28;20063;-83
2022/10/03 01:27:03;;;;;;;8.05;4.00;;;13.70;99.90;;;;;;5031164;28;20025;-79
2022/10/03 01:32:37;;;;;;;6.47;3.42;;;13.60;99.90;;;;;;5033192;28;20048;-83
2022/10/03 01:35:44;;;;;;;6.72;3.05;;;13.70;99.90;;;;;;5031825;28;20139;-83
2022/10/03 01:38:24;;;;;;;7.18;3.45;;;13.60;99.90;;;;;;5030882;28;20044;-80
2022/10/03 01:40:59;;;;;;;7.20;3.95;;;13.70;99.90;;;;;;5033202;28;20618;-81
2022/10/03 01:43:35;;;;;;;6.13;3.80;;;13.70;99.90;;;;;;5041192;28;20104;-80
2022/10/03 01:46:33;;;;;;;8.63;3.60;;;13.70;99.90;;;;;;5031338;28;20056;-80
2022/10/03 01:49:18;;;;;;;7.00;3.75;;;13.60;99.90;;;;;;5033804;28;20029;-80
2022/10/03 01:52:10;;;;;;;10.43;3.80;;;13.60;99.90;;;;;;5033261;28;20462;-79
2022/10/03 01:55:00;;;;;;;8.88;3.90;;;13.60;99.90;;;;;;5031867;28;20045;-80
2022/10/03 01:57:36;;;;;;;7.45;3.08;;;13.60;99.90;;;;;;5030997;28;20029;-83
2022/10/03 02:00:21;;;;;;;9.25;3.85;;;13.50;99.90;;;;;;5033359;28;20048;-82
2022/10/03 02:03:08;;;;;;;6.50;3.85;;;13.70;99.90;;;;;;5030369;28;20037;-81
2022/10/03 02:05:44;;;;;;;12.75;3.95;;;13.60;99.90;;;;;;5037161;28;20064;-80
2022/10/03 02:08:27;;;;;;;10.13;4.22;;;13.60;99.90;;;;;;5038718;28;20479;-84
2022/10/03 02:10:59;;;;;;;7.22;3.88;;;13.60;99.90;;;;;;5038450;28;20475;-80
2022/10/03 02:13:57;;;;;;;9.85;3.92;;;13.70;99.90;;;;;;5029826;28;20055;-83
2022/10/03 02:16:40;;;;;;;5.45;3.78;;;13.60;99.90;;;;;;5030462;28;20088;-83
2022/10/03 02:19:24;;;;;;;6.40;3.72;;;13.50;99.90;;;;;;5031604;28;20029;-80
2022/10/03 02:21:55;;;;;;;6.90;3.60;;;13.30;99.90;;;;;;5032919;28;20075;-80
2022/10/03 02:24:24;;;;;;;8.82;3.40;;;13.20;99.90;;;;;;5029840;28;20052;-83
2022/10/03 02:27:10;;;;;;;6.40;3.58;;;13.10;99.90;;;;;;5033889;28;20055;-80
2022/10/03 02:30:08;;;;;;;8.02;3.95;;;13.00;99.90;;;;;;5033237;28;20037;-83
2022/10/03 02:32:57;;;;;;;6.50;2.88;;;12.90;99.90;;;;;;5031102;28;20079;-83
2022/10/03 02:35:42;;;;;;;6.43;3.60;;;12.80;99.90;;;;;;5030445;28;20032;-80
2022/10/03 02:38:28;;;;;;;7.55;4.22;;;12.90;99.90;;;;;;5031395;28;20037;-83
2022/10/03 02:41:06;;;;;;;6.57;3.67;;;13.10;99.90;;;;;;5035303;28;20078;-80
2022/10/03 02:44:08;;;;;;;8.70;4.22;;;12.90;99.90;;;;;;5029360;28;20104;-80
2022/10/03 02:47:21;;;;;;;6.32;2.80;;;12.80;99.90;;;;;;5033238;28;20091;-83
2022/10/03 02:50:08;;;;;;;5.28;2.90;;;12.90;99.90;;;;;;5029493;28;20120;-83
2022/10/03 02:52:55;;;;;;;8.82;3.50;;;13.00;99.90;;;;;;5029267;28;20036;-80
2022/10/03 02:55:30;;;;;;;7.00;2.97;;;12.90;99.90;;;;;;5035007;28;20029;-84
2022/10/03 02:58:17;;;;;;;10.70;4.28;;;12.90;99.90;;;;;;5029745;28;20731;-83
2022/10/03 03:01:13;;;;;;;6.07;2.92;;;12.90;99.90;;;;;;5029432;28;20383;-78
2022/10/03 03:04:36;;;;;;;7.90;3.47;;;12.90;99.90;;;;;;5026840;28;20399;-78
2022/10/03 03:07:37;;;;;;;6.80;3.20;;;12.80;99.90;;;;;;5026611;28;20028;-78
2022/10/03 03:10:11;;;;;;;7.00;3.25;;;12.80;99.90;;;;;;5024486;28;20029;-81
2022/10/03 03:12:55;;;;;;;;;;;12.90;99.90;;;;;;5025690;28;20063;-79
2022/10/03 03:15:58;;;;;;;6.63;3.25;;;12.90;99.90;;;;;;5027931;28;19915;-81
2022/10/03 03:18:33;;;;;;;6.32;2.65;;;12.90;99.90;;;;;;5022792;28;20034;-81
2022/10/03 03:21:39;;;;;;;6.57;2.38;;;12.90;99.90;;;;;;5028710;28;20082;-81
2022/10/03 03:24:41;;;;;;;6.80;3.28;;;13.00;99.90;;;;;;5024198;28;20017;-81
2022/10/03 03:27:16;;;;;;;7.55;2.70;;;13.00;99.90;;;;;;5027455;28;20029;-78
2022/10/03 03:29:47;;;;;;;;;;;12.80;99.90;;;;;;5027503;28;20022;-82
2022/10/03 03:32:53;;;;;;;6.45;3.05;;;12.80;99.90;;;;;;5025917;28;19989;-81
2022/10/03 03:35:37;;;;;;;;;;;12.60;99.90;;;;;;5027448;28;20141;-78
2022/10/03 03:38:19;;;;;;;3.90;2.30;;;12.60;99.90;;;;;;5026344;28;20352;-78
2022/10/03 03:41:11;;;;;;;4.38;2.50;;;12.60;99.90;;;;;;5024811;28;20044;-78
2022/10/03 03:43:58;;;;;;;6.53;2.58;;;12.70;99.90;;;;;;5025000;28;20033;-78
2022/10/03 03:46:39;;;;;;;7.00;3.55;;;12.60;99.90;;;;;;5025699;28;20111;-80
2022/10/03 03:49:29;;;;;;;6.47;3.30;;;12.50;99.90;;;;;;5031127;28;20476;-81
2022/10/03 03:52:09;;;;;;;5.95;2.30;;;12.50;99.90;;;;;;5037431;28;20702;-81
2022/10/03 03:54:41;;;;;;;4.30;2.08;;;12.50;99.90;;;;;;5038876;28;20045;-78
2022/10/03 03:57:21;;;;;;;4.57;2.08;;;12.30;99.90;;;;;;5026137;28;20608;-81
2022/10/03 03:59:59;;;;;;;6.93;3.47;;;12.40;99.90;;;;;;5024625;28;20103;-81
2022/10/03 04:02:39;;;;;;;5.72;2.65;;;12.60;99.90;;;;;;5026208;28;20477;-78
2022/10/03 04:05:46;;;;;;;6.30;2.50;;;12.60;99.90;;;;;;5032162;28;20037;-78
2022/10/03 04:08:37;;;;;;;5.13;2.00;;;12.50;99.90;;;;;;5029925;28;20099;-81
2022/10/03 04:11:05;;;;;;;4.40;2.00;;;12.50;99.90;;;;;;5024599;28;20589;-80
2022/10/03 04:13:46;;;;;;;5.20;2.55;;;12.40;99.90;;;;;;5024731;28;20076;-78
2022/10/03 04:16:12;;;;;;;5.32;2.05;;;12.40;99.90;;;;;;5024947;28;20124;-80
2022/10/03 04:19:13;;;;;;;5.65;2.35;;;12.50;99.90;;;;;;5024089;28;20164;-78
2022/10/03 04:21:41;;;;;;;4.32;2.30;;;12.50;99.90;;;;;;5022837;28;20046;-78
2022/10/03 04:24:53;;;;;;;5.93;2.47;;;12.60;99.90;;;;;;5024758;28;20040;-81
2022/10/03 04:27:37;;;;;;;6.07;2.17;;;12.70;99.90;;;;;;5023903;28;20040;-78
2022/10/03 04:30:18;;;;;;;6.07;2.80;;;12.70;99.90;;;;;;5023411;28;20025;-81
2022/10/03 04:33:15;;;;;;;5.78;2.67;;;12.60;99.90;;;;;;5025215;28;20052;-80
2022/10/03 04:35:41;;;;;;;4.75;2.72;;;12.60;99.90;;;;;;5025454;28;20037;-81
2022/10/03 04:38:32;;;;;;;5.22;1.98;;;12.70;99.90;;;;;;5027239;28;20813;-78
2022/10/03 04:41:26;;;;;;;3.60;2.20;;;12.40;99.90;;;;;;5027913;28;20041;-80
2022/10/03 04:44:10;;;;;;;5.07;2.70;;;12.50;99.90;;;;;;5028129;28;20040;-81
2022/10/03 04:46:37;;;;;;;4.75;2.75;;;12.60;99.90;;;;;;5030062;28;20385;-78
2022/10/03 04:49:30;;;;;;;4.72;2.50;;;12.60;99.90;;;;;;5026707;28;20021;-78
2022/10/03 04:52:12;;;;;;;4.32;2.47;;;12.50;99.90;;;;;;5029240;28;20040;-80
2022/10/03 04:54:58;;;;;;;4.85;2.97;;;12.40;99.90;;;;;;5031965;28;20107;-78
2022/10/03 04:57:49;;;;;;;6.80;2.95;;;12.40;99.90;;;;;;5026224;28;20045;-81
2022/10/03 05:00:40;;;;;;;4.75;2.10;;;12.20;99.90;;;;;;5029123;28;20030;-78
2022/10/03 05:03:32;;;;;;;5.05;2.15;;;12.00;99.90;;;;;;5026124;28;20040;-79
2022/10/03 05:06:24;;;;;;;6.32;2.22;;;12.10;99.90;;;;;;5026656;28;20883;-81
2022/10/03 05:09:14;;;;;;;5.45;2.22;;;12.10;99.90;;;;;;5027241;28;20038;-81
2022/10/03 05:12:19;;;;;;;7.68;3.55;;;12.10;99.90;;;;;;5024572;28;20060;-81
2022/10/03 05:15:06;;;;;;;3.17;1.70;;;12.20;99.90;;;;;;5036815;28;20051;-78
2022/10/03 05:17:53;;;;;;;4.25;2.03;;;12.20;99.90;;;;;;5027452;28;20022;-81
2022/10/03 05:20:23;;;;;;;3.15;1.40;;;12.20;99.90;;;;;;5028057;28;20086;-81
2022/10/03 05:23:18;;;;;;;2.10;1.15;;;12.20;99.90;;;;;;5036648;28;20120;-77
2022/10/03 05:25:52;;;;;;;3.72;1.38;;;12.10;99.90;;;;;;5025642;28;20037;-80
2022/10/03 05:28:39;;;;;;;6.28;1.63;;;12.40;99.90;;;;;;5023812;28;20034;-79
2022/10/03 05:31:23;;;;;;;4.30;2.15;;;12.50;99.90;;;;;;5022001;28;20622;-79
2022/10/03 05:34:13;;;;;;;3.70;2.15;;;12.40;99.90;;;;;;5022405;28;20049;-79
2022/10/03 05:36:50;;;;;;;5.03;1.33;;;12.40;99.90;;;;;;5022991;28;20025;-79
2022/10/03 05:39:25;;;;;;;4.05;1.00;;;12.30;99.90;;;;;;5022029;28;20037;-80
2022/10/03 05:42:14;;;;;;;2.05;1.00;;;12.20;99.90;;;;;;5022099;28;20037;-79
2022/10/03 05:44:45;;;;;;;2.88;1.50;;;12.20;99.90;;;;;;5022120;28;20486;-79
2022/10/03 05:47:45;;;;;;;3.67;1.75;;;12.30;99.90;;;;;;5022023;28;20040;-79
2022/10/03 05:50:10;;;;;;;2.72;1.42;;;12.20;99.90;;;;;;5026808;28;20029;-79
2022/10/03 05:52:49;;;;;;;5.90;2.78;;;12.20;99.90;;;;;;5022005;28;20438;-79
2022/10/03 05:55:23;;;;;;;5.65;2.30;;;12.20;99.90;;;;;;5021597;28;20119;-79
2022/10/03 05:58:11;;;;;;;5.45;1.58;;;12.20;99.90;;;;;;5021900;28;20029;-79
2022/10/03 06:01:10;;;;;;;5.38;1.83;;;12.10;99.90;;;;;;5023544;28;20021;-79
2022/10/03 06:03:54;;;;;;;6.05;2.33;;;12.00;99.90;;;;;;5021678;28;20152;-79
2022/10/03 06:06:44;;;;;;;4.43;2.05;;;11.90;99.90;;;;;;5022909;28;20094;-79
2022/10/03 06:09:21;;;;;;;2.55;1.50;;;11.90;99.90;;;;;;5021773;28;20152;-79
2022/10/03 06:12:01;;;;;;;2.60;1.38;;;12.00;99.90;;;;;;5023370;28;20076;-79
2022/10/03 06:15:04;;;;;;;6.15;1.70;;;12.00;99.90;;;;;;5025301;28;20068;-80
2022/10/03 06:17:32;;;;;;;3.90;1.27;;;12.10;99.90;;;;;;5026302;28;20037;-77
2022/10/03 06:20:10;;;;;;;3.90;1.83;;;12.00;99.90;;;;;;5022935;28;20525;-77
2022/10/03 06:23:06;;;;;;;2.17;1.10;;;12.10;99.90;;;;;;5022638;28;20897;-78
2022/10/03 06:26:02;;;;;;;3.67;2.00;;;12.00;99.90;;;;;;5022805;28;20037;-77
2022/10/03 06:28:50;;;;;;;4.43;1.92;;;12.00;99.90;;;;;;5032552;28;20083;-78
2022/10/03 06:31:53;;;;;;;4.75;2.00;;;12.00;99.90;;;;;;5020987;28;20508;-78
2022/10/03 06:34:51;;;;;;;4.72;1.55;;;12.00;99.90;;;;;;5023779;28;20080;-78
2022/10/03 06:37:28;;;;;;;2.42;1.20;;;12.00;99.90;;;;;;5019831;28;20025;-79
2022/10/03 06:40:00;;;;;;;2.63;1.30;;;12.00;99.90;;;;;;5026869;28;20026;-78
2022/10/03 06:42:52;;;;;;;2.95;1.30;;;12.10;99.90;;;;;;5021556;28;20037;-78
2022/10/03 06:45:17;;;;;;;4.60;1.15;;;12.20;99.90;;;;;;5022809;28;20510;-77
2022/10/03 06:48:11;;;;;;;1.20;0.70;;;12.40;99.90;;;;;;5021878;28;20033;-85
2022/10/03 06:51:14;;;;;;;1.65;1.05;;;12.50;99.90;;;;;;5022337;28;20160;-80
2022/10/03 06:53:52;;;;;;;4.55;1.10;;;12.80;99.90;;;;;;5020303;28;20056;-80
2022/10/03 06:56:45;;;;;;;2.17;1.20;;;13.10;99.90;;;;;;5021183;28;20049;-80
2022/10/03 06:59:34;;;;;;;2.17;1.10;;;13.10;99.90;;;;;;5022023;28;20064;-80
2022/10/03 07:02:38;;;;;;;2.60;1.30;;;13.30;99.90;;;;;;5023917;28;20168;-80
2022/10/03 07:05:06;;;;;;;2.83;1.38;;;13.50;99.90;;;;;;5021431;28;20841;-80
2022/10/03 07:08:02;;;;;;;4.78;1.30;;;13.60;99.90;;;;;;5020799;28;20357;-80
2022/10/03 07:10:43;;;;;;;2.83;1.30;;;13.60;99.90;;;;;;5021912;28;20536;-80
2022/10/03 07:13:34;;;;;;;7.15;2.10;;;13.60;99.90;;;;;;5021349;28;20056;-80
2022/10/03 07:16:34;;;;;;;3.40;1.33;;;13.50;99.90;;;;;;5021731;28;20033;-80
2022/10/03 07:19:14;;;;;;;3.80;2.30;;;13.40;99.90;;;;;;5020297;28;20496;-79
2022/10/03 07:22:12;;;;;;;4.47;1.98;;;13.10;99.90;;;;;;5020571;28;20029;-80
2022/10/03 07:24:43;;;;;;;3.10;1.33;;;13.10;99.90;;;;;;5028773;28;20399;-80
2022/10/03 07:27:29;;;;;;;2.67;1.38;;;13.20;99.90;;;;;;5023219;28;20033;-79
2022/10/03 07:30:01;;;;;;;4.60;1.42;;;13.40;99.90;;;;;;5022238;28;20036;-80
2022/10/03 07:32:47;;;;;;;2.78;1.02;;;13.40;99.90;;;;;;5024792;28;20099;-80
2022/10/03 07:39:00;;;;;;;3.13;1.80;;;13.40;99.90;;;;;;5032818;28;20091;-80
2022/10/03 07:41:36;;;;;;;4.75;2.10;;;13.40;99.90;;;;;;5034274;28;20471;-80
2022/10/03 07:44:39;;;;;;;6.00;2.00;;;13.40;99.90;;;;;;5029054;28;20053;-80
2022/10/03 07:47:15;;;;;;;3.67;1.75;;;13.50;99.90;;;;;;5023443;28;20041;-80
2022/10/03 07:50:05;;;;;;;6.45;2.53;;;13.40;99.90;;;;;;5025056;28;20025;-80
2022/10/03 07:52:42;;;;;;;5.45;2.72;;;13.30;99.90;;;;;;5020773;28;20037;-80
2022/10/03 07:55:20;;;;;;;4.25;1.95;;;13.30;99.90;;;;;;5022340;28;20057;-80
2022/10/03 07:57:54;;;;;;;4.43;1.85;;;13.40;99.90;;;;;;5019592;28;20049;-80
2022/10/03 08:00:23;;;;;;;3.63;1.60;;;13.50;99.90;;;;;;5019640;28;20806;-79
2022/10/03 08:02:58;;;;;;;2.33;1.25;;;13.60;99.90;;;;;;5019632;28;20021;-80
2022/10/03 08:05:45;;;;;;;2.97;1.25;;;13.70;99.90;;;;;;5023503;28;20049;-79
2022/10/03 08:08:19;;;;;;;2.60;1.05;;;13.80;99.90;;;;;;5024403;28;20096;-80
2022/10/03 08:11:06;;;;;;;2.25;1.08;;;14.00;99.90;;;;;;5024921;28;20472;-80
2022/10/03 08:13:59;;;;;;;3.38;1.65;;;14.10;99.90;;;;;;5033412;28;20048;-80
2022/10/03 08:16:53;;;;;;;5.15;1.85;;;14.30;99.90;;;;;;5029633;28;20034;-80
2022/10/03 08:19:35;;;;;;;4.22;1.75;;;14.10;99.90;;;;;;5031709;28;20045;-80
2022/10/03 08:22:20;;;;;;;3.17;1.40;;;14.20;99.90;;;;;;5030423;28;20022;-80
2022/10/03 08:25:16;;;;;;;5.63;1.85;;;14.30;99.90;;;;;;5024868;28;20032;-80
2022/10/03 08:28:03;;;;;;;3.40;1.85;;;14.30;99.90;;;;;;5031237;28;20469;-80
2022/10/03 08:30:55;;;;;;;5.97;2.38;;;14.30;99.90;;;;;;5031316;28;20649;-79
2022/10/03 08:33:34;;;;;;;8.02;2.40;;;14.40;99.90;;;;;;5026588;28;20045;-80
2022/10/03 08:36:22;;;;;;;2.63;1.30;;;14.60;99.90;;;;;;5024098;28;20029;-80
2022/10/03 08:39:20;;;;;;;4.22;0.98;;;14.90;99.90;;;;;;5024077;28;20030;-80
2022/10/03 08:41:56;;;;;;;2.63;1.02;;;15.00;99.90;;;;;;5023006;28;20021;-80
2022/10/03 08:44:52;;;;;;;1.77;0.63;;;15.20;99.90;;;;;;5023326;28;20116;-80
2022/10/03 08:47:42;;;;;;;2.63;0.80;;;15.20;99.90;;;;;;5022432;28;20463;-80
2022/10/03 08:50:16;;;;;;;2.13;0.98;;;15.20;99.90;;;;;;5023982;28;20251;-79
2022/10/03 08:52:48;;;;;;;2.40;0.82;;;15.10;99.90;;;;;;5023071;28;20353;-79
2022/10/03 08:55:29;;;;;;;2.13;0.88;;;15.20;99.90;;;;;;5022995;28;20033;-80
2022/10/03 08:58:20;;;;;;;3.33;1.10;;;15.20;99.90;;;;;;5022662;28;20117;-80
2022/10/03 09:01:14;;;;;;;3.63;1.02;;;15.30;99.90;;;;;;5026024;28;20138;-80
2022/10/03 09:04:28;;;;;;;3.33;1.20;;;15.30;99.90;;;;;;5026739;28;20537;-80
2022/10/03 09:07:02;;;;;;;2.60;1.10;;;15.40;99.90;;;;;;5024397;28;20033;-80
2022/10/03 09:09:49;;;;;;;2.83;1.08;;;15.50;99.90;;;;;;5026392;28;20612;-80
2022/10/03 09:12:42;;;;;;;2.10;0.95;;;15.50;99.90;;;;;;5029081;28;20125;-80
2022/10/03 09:15:25;;;;;;;2.10;0.77;;;15.70;99.90;;;;;;5032165;28;20119;-80
2022/10/03 09:18:12;;;;;;;7.00;1.40;;;15.90;99.90;;;;;;5025948;28;20065;-81
2022/10/03 09:21:16;;;;;;;2.33;0.60;;;15.90;99.90;;;;;;5026342;28;20120;-80
2022/10/03 09:24:17;;;;;;;3.95;1.25;;;16.10;99.90;;;;;;5025051;28;20033;-80
2022/10/03 09:26:51;;;;;;;1.30;0.60;;;16.20;99.90;;;;;;5028044;28;20037;-80
2022/10/03 09:29:23;;;;;;;3.95;0.70;;;16.30;99.90;;;;;;5026236;28;20483;-80
2022/10/03 09:31:58;;;;;;;2.25;1.08;;;16.40;99.90;;;;;;5028619;28;20456;-82
2022/10/03 09:34:46;;;;;;;1.63;0.80;;;16.60;99.90;;;;;;5030449;28;20060;-80
2022/10/03 09:37:33;;;;;;;2.20;0.90;;;16.70;99.90;;;;;;5034131;28;20045;-80
2022/10/03 09:40:17;;;;;;;3.97;1.10;;;16.70;99.90;;;;;;5027079;28;20486;-80
2022/10/03 09:43:12;;;;;;;3.50;1.00;;;16.80;99.90;;;;;;5027518;28;20055;-80
2022/10/03 09:46:20;;;;;;;2.38;0.95;;;16.90;99.90;;;;;;5024846;28;20036;-81
2022/10/03 09:48:57;;;;;;;2.50;0.80;;;17.10;99.90;;;;;;5027449;28;20561;-80
2022/10/03 09:52:00;;;;;;;3.47;0.88;;;17.30;99.90;;;;;;5025138;28;21012;-80
2022/10/03 09:55:01;;;;;;;1.02;0.65;;;17.30;99.90;;;;;;5025635;28;20416;-80
2022/10/03 09:57:48;;;;;;;1.38;0.65;;;17.50;99.90;;;;;;5024481;28;20470;-80
2022/10/03 10:00:31;;;;;;;1.65;0.73;;;17.70;99.90;;;;;;5024602;28;20869;-81
2022/10/03 10:03:10;;;;;;;3.33;1.20;;;17.70;99.90;;;;;;5027001;28;20029;-80
2022/10/03 10:05:54;;;;;;;5.22;1.00;;;17.90;99.90;;;;;;5024703;28;20037;-81
2022/10/03 10:08:35;;;;;;;2.42;1.20;;;18.00;99.90;;;;;;5023900;28;20029;-81
2022/10/03 10:11:03;;;;;;;1.55;0.73;;;18.00;99.90;;;;;;5024485;28;20535;-81
2022/10/03 10:13:44;;;;;;;2.53;0.93;;;17.90;99.90;;;;;;5023804;28;20050;-81
2022/10/03 10:16:16;;;;;;;2.22;0.90;;;17.90;99.90;;;;;;5024460;28;20033;-81
2022/10/03 10:19:16;;;;;;;2.83;0.65;;;18.00;99.90;;;;;;5028285;28;20021;-80
2022/10/03 10:22:16;;;;;;;1.30;0.82;;;18.00;99.90;;;;;;5023090;28;20121;-81
2022/10/03 10:25:02;;;;;;;4.40;0.80;;;18.10;99.90;;;;;;5027553;28;20021;-80
2022/10/03 10:28:05;;;;;;;2.75;0.90;;;18.40;99.90;;;;;;5030552;28;20033;-81
2022/10/03 10:30:58;;;;;;;2.83;1.17;;;18.70;99.90;;;;;;5029921;28;20029;-80
2022/10/03 10:33:42;;;;;;;5.32;1.02;;;18.90;99.90;;;;;;5030170;28;20050;-81
2022/10/03 10:36:41;;;;;;;3.58;0.80;;;19.00;99.70;;;;;;5031220;28;20600;-81
2022/10/03 10:39:26;;;;;;;1.73;0.70;;;19.10;99.50;;;;;;5028249;28;20031;-81
2022/10/03 10:42:25;;;;;;;2.53;1.05;;;19.10;99.90;;;;;;5031108;28;20385;-81
2022/10/03 10:45:13;;;;;;;1.88;1.02;;;19.30;99.70;;;;;;5031327;28;20552;-81
2022/10/03 10:47:47;;;;;;;1.42;0.43;;;19.30;98.50;;;;;;5034143;28;20025;-81
2022/10/03 10:50:38;;;;;;;1.00;0.60;;;19.40;98.70;;;;;;5028900;28;20040;-81
2022/10/03 10:53:58;;;;;;;3.28;0.77;;;19.60;98.80;;;;;;5024173;28;20067;-81
2022/10/03 10:56:35;;;;;;;0.93;0.35;;;19.60;98.30;;;;;;5021068;28;20117;-81
2022/10/03 10:59:29;;;;;;;1.77;0.63;;;19.70;98.30;;;;;;5023067;28;20049;-82
2022/10/03 11:02:13;;;;;;;1.58;0.50;;;19.80;98.30;;;;;;5024203;28;20025;-81
2022/10/03 11:05:05;;;;;;;0.43;0.20;;;19.90;97.10;;;;;;5022957;28;20622;-81
2022/10/03 11:07:56;;;;;;;0.93;0.40;;;19.90;95.60;;;;;;5024100;28;20033;-81
2022/10/03 11:10:32;;;;;;;0.77;0.45;;;19.90;96.60;;;;;;5024906;28;20521;-81
2022/10/03 11:13:32;;;;;;;2.63;0.40;;;20.30;96.40;;;;;;5024646;28;20120;-81
2022/10/03 11:16:20;;;;;;;1.05;0.47;;;20.50;96.70;;;;;;5033299;28;20068;-81
2022/10/03 11:19:27;;;;;;;1.15;0.30;;;20.70;96.50;;;;;;5025315;28;20044;-81
2022/10/03 11:22:37;;;;;;;0.73;0.30;;;20.80;97.10;;;;;;5031472;28;20468;-81
2022/10/03 11:25:31;;;;;;;1.58;0.45;;;21.00;96.00;;;;;;5036344;28;20006;-81
2022/10/03 11:28:25;;;;;;;0.55;0.40;;;21.10;96.20;;;;;;5039771;28;20045;-81
2022/10/03 11:30:57;;;;;;;;;;;21.10;96.00;;;;;;5032759;28;20158;-81
2022/10/03 11:33:34;;;;;;;0.82;0.50;;;21.30;96.00;;;;;;5025150;28;20401;-80
2022/10/03 11:36:05;;;;;;;2.55;0.55;;;21.20;94.30;;;;;;5031789;28;20025;-80
2022/10/03 11:39:14;;;;;;;2.33;0.65;;;21.40;95.30;;;;;;5024682;28;20056;-80
2022/10/03 11:41:50;;;;;;;0.68;0.30;;;21.50;96.10;;;;;;5032780;28;20041;-77
2022/10/03 11:44:16;;;;;;;4.45;1.38;;;21.30;94.40;;;;;;5025689;28;20044;-79
2022/10/03 11:47:01;;;;;;;0.68;0.35;;;21.40;94.50;;;;;;5026496;28;20025;-86
2022/10/03 11:49:53;;;;;;;0.90;0.35;;;21.40;94.40;;;;;;5031284;28;20021;-86
2022/10/03 11:52:31;;;;;;;0.80;0.32;;;21.70;94.70;;;;;;5036892;28;20556;-87
2022/10/03 11:55:22;;;;;;;0.82;0.50;;;21.90;94.10;;;;;;5027610;28;20038;-85
2022/10/03 11:58:31;;;;;;;1.23;0.45;;;21.90;94.60;;;;;;5034528;28;20124;-87
2022/10/03 12:01:20;;;;;;;6.82;0.52;;;21.80;93.40;;;;;;5026028;28;20227;-85
2022/10/03 12:03:58;;;;;;;0.63;0.28;;;21.80;93.60;;;;;;5027831;28;20033;-84
2022/10/03 12:10:18;;;;;;;1.13;0.38;;;21.80;92.00;;;;;;5025118;28;20035;-86
2022/10/03 12:12:55;;;;;;;1.63;0.38;;;22.10;91.80;;;;;;5025018;28;20589;-85
2022/10/03 12:15:37;;;;;;;1.98;0.50;;;22.10;92.50;;;;;;5027111;28;20595;-86
2022/10/03 12:18:03;;;;;;;1.55;0.30;;;22.10;93.50;;;;;;5027649;28;20491;-87
2022/10/03 12:20:49;;;;;;;1.92;0.30;;;22.10;92.30;;;;;;5034662;28;20032;-85
2022/10/03 12:23:25;;;;;;;1.67;0.20;;;22.20;92.40;;;;;;5027275;28;20038;-87
2022/10/03 12:25:52;;;;;;;0.90;0.35;;;22.20;92.10;;;;;;5032787;28;20026;-85
2022/10/03 12:28:34;;;;;;;0.80;0.50;;;22.30;92.50;;;;;;5029040;28;20431;-86
2022/10/03 12:31:11;;;;;;;1.20;0.60;;;22.30;91.80;;;;;;5025076;28;20160;-86
2022/10/03 12:33:56;;;;;;;0.43;0.20;;;22.20;91.20;;;;;;5025967;28;20045;-88
2022/10/03 12:36:31;;;;;;;;;;;22.00;91.50;;;;;;5036025;28;20033;-87
2022/10/03 12:39:23;;;;;;;0.40;0.20;;;22.10;92.40;;;;;;5029557;28;19932;-87
2022/10/03 12:42:19;;;;;;;0.45;0.15;;;22.40;91.50;;;;;;5026355;28;20045;-85
2022/10/03 12:45:17;;;;;;;1.60;0.52;;;22.30;91.00;;;;;;5024405;28;20094;-79
2022/10/03 12:47:47;;;;;;;0.88;0.20;;;22.40;90.90;;;;;;5023543;28;20037;-76
2022/10/03 12:50:22;;;;;;;2.33;0.50;;;22.60;90.10;;;;;;5025261;28;20083;-77
2022/10/03 12:53:00;;;;;;;0.10;0.10;;;22.60;90.20;;;;;;5028083;28;20067;-79
2022/10/03 12:55:33;;;;;;;0.15;0.15;;;22.50;87.00;;;;;;5025474;28;20467;-83
2022/10/03 12:58:02;;;;;;;1.95;0.20;;;22.60;86.10;;;;;;5023420;28;20065;-78
2022/10/03 13:00:27;;;;;;;0.30;0.10;;;22.80;88.40;;;;;;5023841;28;20537;-83
2022/10/03 13:03:29;;;;;;;0.22;0.10;;;22.80;89.00;;;;;;5024799;28;20029;-82
2022/10/03 13:06:21;;;;;;;0.95;0.20;;;22.90;86.60;;;;;;5026915;28;20048;-83
2022/10/03 13:09:05;;;;;;;0.52;0.10;;;22.70;85.20;;;;;;5027469;28;20087;-83
2022/10/03 13:11:38;;;;;;;0.65;0.13;;;22.70;85.40;;;;;;5027319;28;20043;-83
2022/10/03 13:14:28;;;;;;;0.20;0.10;;;23.00;88.80;;;;;;5033094;28;20041;-83
2022/10/03 13:17:03;;;;;;;1.00;0.10;;;23.20;88.10;;;;;;5030261;28;20123;-83
2022/10/03 13:19:59;;;;;;;1.98;0.70;;;23.30;82.60;;;;;;5026994;28;20087;-83
2022/10/03 13:22:52;;;;;;;0.88;0.30;;;23.30;85.00;;;;;;5034149;28;20048;-82
2022/10/03 13:25:32;;;;;;;0.30;0.20;;;23.20;88.50;;;;;;5027468;28;20439;-83
2022/10/03 13:28:22;;;;;;;1.27;0.43;;;23.30;87.20;;;;;;5031493;28;20033;-83
2022/10/03 13:30:52;;;;;;;0.40;0.20;;;23.40;87.30;;;;;;5035471;28;20087;-83
2022/10/03 13:33:24;;;;;;;0.50;0.10;;;23.20;85.80;;;;;;5031581;28;20049;-84
2022/10/03 13:36:08;;;;;;;5.47;0.30;;;23.20;86.50;;;;;;5030100;28;20033;-82
2022/10/03 13:38:58;;;;;;;2.35;0.17;;;23.10;84.90;;;;;;5032420;28;20029;-82
2022/10/03 13:41:45;;;;;;;1.00;0.40;;;23.20;85.50;;;;;;5030407;28;20030;-82
2022/10/03 13:44:37;;;;;;;0.80;0.30;;;23.10;86.00;;;;;;5029233;28;20111;-82
2022/10/03 13:47:22;;;;;;;0.32;0.17;;;23.00;85.90;;;;;;5029264;28;20116;-82
2022/10/03 13:50:03;;;;;;;0.57;0.20;;;23.10;85.40;;;;;;5028349;28;20064;-82
2022/10/03 13:52:35;;;;;;;1.55;0.40;;;23.20;85.40;;;;;;5027349;28;20041;-81
2022/10/03 13:55:29;;;;;;;1.85;0.50;;;23.30;84.60;;;;;;5028134;28;20037;-80
2022/10/03 13:58:26;;;;;;;0.32;0.10;;;23.50;83.70;;;;;;5025733;28;20592;-80
2022/10/03 14:01:01;;;;;;;0.25;0.10;;;23.40;84.50;;;;;;5025878;28;20534;-80
2022/10/03 14:03:35;;;;;;;1.55;0.20;;;23.60;84.70;;;;;;5028657;28;20088;-80
2022/10/03 14:06:23;;;;;;;1.55;0.28;;;23.80;85.90;;;;;;5026174;28;20021;-80
2022/10/03 14:09:02;;;;;;;0.52;0.10;;;23.90;83.80;;;;;;5033142;28;20033;-80
2022/10/03 14:12:01;;;;;;;0.50;0.35;;;23.80;81.60;;;;;;5027783;28;20076;-80
2022/10/03 14:14:50;;;;;;;0.47;0.17;;;23.70;80.50;;;;;;5027379;28;20065;-81
2022/10/03 14:17:35;;;;;;;0.45;0.15;;;23.40;80.20;;;;;;5025636;28;20921;-81
2022/10/03 14:20:04;;;;;;;0.32;0.15;;;23.50;81.60;;;;;;5025117;28;20284;-80
2022/10/03 14:22:37;;;;;;;1.05;0.30;;;23.50;80.50;;;;;;5041428;28;20025;-81
2022/10/03 14:25:08;;;;;;;1.35;0.17;;;23.70;83.60;;;;;;5051215;28;20044;-80
2022/10/03 14:27:39;;;;;;;0.63;0.20;;;23.80;82.60;;;;;;5025568;28;20114;-77
2022/10/03 14:30:44;;;;;;;1.20;0.20;;;23.80;83.00;;;;;;5033887;28;20072;-78
2022/10/03 14:33:20;;;;;;;3.72;0.40;;;23.90;84.50;;;;;;5026707;28;20037;-79